createdAt,value
2022-07-26T00:02:48.756Z,43.99
2022-07-26T00:05:50.335Z,44.51
2022-07-26T00:08:52.274Z,44.86
2022-07-26T00:11:53.885Z,45.40
2022-07-26T00:14:55.315Z,45.48
2022-07-26T00:17:56.872Z,45.52
2022-07-26T00:20:58.525Z,45.65
2022-07-26T00:24:00.136Z,46.09
2022-07-26T00:27:01.559Z,45.71
2022-07-26T00:30:06.722Z,45.66
2022-07-26T00:33:08.176Z,45.65
2022-07-26T00:36:10.001Z,46.00
2022-07-26T00:39:11.738Z,45.89
2022-07-26T00:42:14.042Z,46.04
2022-07-26T00:45:16.467Z,45.72
2022-07-26T00:48:18.855Z,45.46
2022-07-26T00:51:20.922Z,45.95
2022-07-26T00:54:22.494Z,45.72
2022-07-26T00:57:24.074Z,46.08
2022-07-26T01:00:28.185Z,45.65
2022-07-26T01:03:36.471Z,45.27
2022-07-26T01:06:42.188Z,46.15
2022-07-26T01:09:44.524Z,46.81
2022-07-26T01:12:47.069Z,47.66
2022-07-26T01:15:48.895Z,47.77
2022-07-26T01:18:50.348Z,48.29
2022-07-26T01:21:51.905Z,48.45
2022-07-26T01:24:53.384Z,48.48
2022-07-26T01:27:54.897Z,49.42
2022-07-26T01:30:56.606Z,49.81
2022-07-26T01:33:58.231Z,50.50
2022-07-26T01:36:59.905Z,50.59
2022-07-26T01:40:01.693Z,51.27
2022-07-26T01:43:03.166Z,52.09
2022-07-26T01:46:07.185Z,52.66
2022-07-26T01:49:09.284Z,52.07
2022-07-26T01:52:10.863Z,52.04
2022-07-26T01:55:12.306Z,52.95
2022-07-26T01:58:13.939Z,52.60
2022-07-26T02:01:15.856Z,53.16
2022-07-26T02:04:56.005Z,54.44
2022-07-26T02:07:57.572Z,54.41
2022-07-26T02:11:03.588Z,54.68
2022-07-26T02:14:05.781Z,54.66
2022-07-26T02:17:07.556Z,55.58
2022-07-26T02:20:09.581Z,57.04
2022-07-26T02:23:12.028Z,58.42
2022-07-26T02:26:13.514Z,58.52
2022-07-26T02:29:14.949Z,58.19
2022-07-26T02:32:16.829Z,59.95
2022-07-26T02:35:18.401Z,61.00
2022-07-26T02:38:19.925Z,61.55
2022-07-26T02:41:21.397Z,61.77
2022-07-26T02:44:23.968Z,62.18
2022-07-26T02:47:25.598Z,62.43
2022-07-26T02:50:28.288Z,62.61
2022-07-26T02:53:29.721Z,63.13
2022-07-26T02:56:31.151Z,63.10
2022-07-26T02:59:32.598Z,63.53
2022-07-26T03:02:34.064Z,62.72
2022-07-26T03:05:35.504Z,61.83
2022-07-26T03:08:37.018Z,60.19
2022-07-26T03:11:38.571Z,59.50
2022-07-26T03:14:40.404Z,59.58
2022-07-26T03:17:41.883Z,59.81
2022-07-26T03:20:43.489Z,59.77
2022-07-26T03:23:44.912Z,59.50
2022-07-26T03:26:46.329Z,58.86
2022-07-26T03:29:47.800Z,58.35
2022-07-26T03:32:49.560Z,57.10
2022-07-26T03:35:50.990Z,57.08
2022-07-26T03:38:52.399Z,57.15
2022-07-26T03:41:53.809Z,56.92
2022-07-26T03:44:55.273Z,56.46
2022-07-26T03:47:56.692Z,55.91
2022-07-26T03:50:58.280Z,55.62
2022-07-26T03:54:00.428Z,55.92
2022-07-26T03:57:01.984Z,55.64
2022-07-26T04:00:03.888Z,56.38
2022-07-26T04:03:08.981Z,56.12
2022-07-26T04:06:10.854Z,56.56
2022-07-26T04:09:13.491Z,58.11
2022-07-26T04:12:14.913Z,57.69
2022-07-26T04:15:18.774Z,58.97
2022-07-26T04:18:20.453Z,58.71
2022-07-26T04:21:22.454Z,58.30
2022-07-26T04:24:25.350Z,58.89
2022-07-26T04:27:27.618Z,58.73
2022-07-26T04:30:29.554Z,58.47
2022-07-26T04:33:31.078Z,59.71
2022-07-26T04:36:32.871Z,59.21
2022-07-26T04:39:34.311Z,58.81
2022-07-26T04:42:36.575Z,58.36
2022-07-26T04:45:38.070Z,58.06
2022-07-26T04:48:39.647Z,57.14
2022-07-26T04:51:41.177Z,56.92
2022-07-26T04:54:42.662Z,57.00
2022-07-26T04:57:45.362Z,57.15
2022-07-26T05:04:10.789Z,57.52
2022-07-26T05:07:12.564Z,60.14
2022-07-26T05:10:16.020Z,60.75
2022-07-26T05:13:17.557Z,60.79
2022-07-26T05:16:31.388Z,61.87
2022-07-26T05:19:33.394Z,61.04
2022-07-26T05:22:35.984Z,63.07
2022-07-26T05:25:38.650Z,65.87
2022-07-26T05:28:40.490Z,66.21
2022-07-26T05:31:42.496Z,67.63
2022-07-26T05:34:43.953Z,69.09
2022-07-26T05:37:45.440Z,68.89
2022-07-26T05:40:50.463Z,67.66
2022-07-26T05:43:52.619Z,68.30
2022-07-26T05:46:54.074Z,67.06
2022-07-26T05:49:55.517Z,67.09
2022-07-26T05:52:56.916Z,67.38
2022-07-26T05:55:58.365Z,67.24
2022-07-26T05:58:59.815Z,66.81
2022-07-26T06:02:01.333Z,67.04
2022-07-26T06:05:02.936Z,66.99
2022-07-26T06:08:04.682Z,66.94
2022-07-26T06:11:06.356Z,66.39
2022-07-26T06:14:07.918Z,65.35
2022-07-26T06:17:09.630Z,65.12
2022-07-26T06:20:11.410Z,64.59
2022-07-26T06:23:13.396Z,64.01
2022-07-26T06:26:14.950Z,63.27
2022-07-26T06:29:16.371Z,61.89
2022-07-26T06:32:17.980Z,62.09
2022-07-26T06:35:19.966Z,62.03
2022-07-26T06:38:21.715Z,61.50
2022-07-26T06:41:23.251Z,59.84
2022-07-26T06:44:24.694Z,60.27
2022-07-26T06:47:27.134Z,59.52
2022-07-26T06:50:28.764Z,59.80
2022-07-26T06:53:30.367Z,58.96
2022-07-26T06:56:32.448Z,59.27
2022-07-26T06:59:34.113Z,58.17
2022-07-26T07:02:36.141Z,58.01
2022-07-26T07:05:37.544Z,57.83
2022-07-26T07:08:39.513Z,58.13
2022-07-26T07:11:44.375Z,58.30
2022-07-26T07:14:46.538Z,57.41
2022-07-26T07:17:48.596Z,57.87
2022-07-26T07:20:50.106Z,56.49
2022-07-26T07:23:51.561Z,54.74
2022-07-26T07:26:53.520Z,54.29
2022-07-26T07:29:56.721Z,53.92
2022-07-26T07:32:59.119Z,54.36
2022-07-26T07:36:00.559Z,54.41
2022-07-26T07:39:06.356Z,54.36
2022-07-26T07:42:09.202Z,54.10
2022-07-26T07:45:11.586Z,53.43
2022-07-26T07:48:13.022Z,53.38
2022-07-26T07:51:14.968Z,52.75
2022-07-26T07:54:18.311Z,52.32
2022-07-26T07:57:20.228Z,54.07
2022-07-26T08:00:27.046Z,55.46
2022-07-26T08:03:38.616Z,53.91
2022-07-26T08:06:41.748Z,52.84
2022-07-26T08:09:51.901Z,52.32
2022-07-26T08:12:53.325Z,49.39
2022-07-26T08:15:55.826Z,49.80
2022-07-26T08:18:58.592Z,49.28
2022-07-26T08:22:00.247Z,49.89
2022-07-26T08:25:02.877Z,49.54
2022-07-26T08:28:04.518Z,50.02
2022-07-26T08:31:06.316Z,50.45
2022-07-26T08:34:07.790Z,49.82
2022-07-26T08:37:17.834Z,48.14
2022-07-26T08:40:19.708Z,47.74
2022-07-26T08:43:21.134Z,47.29
2022-07-26T08:46:28.226Z,46.90
2022-07-26T08:49:29.909Z,47.02
2022-07-26T08:52:31.439Z,45.62
2022-07-26T08:55:50.585Z,44.36
2022-07-26T08:58:54.442Z,45.01
2022-07-26T09:02:01.850Z,44.68
2022-07-26T09:05:04.771Z,45.25
2022-07-26T09:08:27.766Z,45.48
2022-07-26T09:11:33.504Z,45.79
2022-07-26T09:14:39.384Z,45.52
2022-07-26T09:17:44.039Z,46.57
2022-07-26T09:20:47.176Z,46.26
2022-07-26T09:23:49.597Z,45.50
2022-07-26T09:26:59.814Z,45.49
2022-07-26T09:30:07.094Z,45.97
2022-07-26T09:33:08.525Z,45.96
2022-07-26T09:36:10.122Z,44.45
2022-07-26T09:39:11.841Z,43.16
2022-07-26T09:42:29.876Z,44.15
2022-07-26T09:45:34.122Z,43.86
2022-07-26T09:49:09.880Z,43.38
2022-07-26T09:51:59.307Z,43.84
2022-07-26T09:55:05.623Z,44.27
2022-07-26T09:58:07.459Z,44.47
2022-07-26T10:01:08.864Z,43.95
2022-07-26T10:04:11.453Z,44.00
2022-07-26T10:07:13.356Z,43.82
2022-07-26T10:10:21.013Z,44.51
2022-07-26T10:13:22.808Z,44.51
2022-07-26T10:16:30.456Z,44.49
2022-07-26T10:19:45.547Z,44.35
2022-07-26T10:22:50.229Z,44.20
2022-07-26T10:25:51.759Z,44.07
2022-07-26T10:28:53.260Z,44.32
2022-07-26T10:32:00.818Z,43.22
2022-07-26T10:35:29.722Z,43.99
2022-07-26T10:38:31.186Z,44.13
2022-07-26T10:41:40.185Z,43.74
2022-07-26T10:44:44.849Z,43.85
2022-07-26T10:48:12.236Z,42.87
2022-07-26T10:51:25.542Z,42.83
2022-07-26T10:54:26.966Z,43.04
2022-07-26T10:57:37.749Z,43.05
2022-07-26T11:00:39.303Z,42.39
2022-07-26T11:03:43.200Z,42.86
2022-07-26T11:06:45.580Z,43.19
2022-07-26T11:09:46.999Z,42.71
2022-07-26T11:12:48.417Z,42.93
2022-07-26T11:15:59.292Z,41.97
2022-07-26T11:19:21.766Z,41.82
2022-07-26T11:22:31.755Z,40.36
2022-07-26T11:25:33.233Z,40.09
2022-07-26T11:28:53.453Z,41.41
2022-07-26T11:32:00.108Z,41.42
2022-07-26T11:35:06.706Z,40.13
2022-07-26T11:38:12.197Z,40.38
2022-07-26T11:41:18.080Z,40.84
2022-07-26T11:44:21.674Z,40.88
2022-07-26T11:47:25.231Z,41.31
2022-07-26T11:50:27.928Z,40.48
2022-07-26T11:53:29.366Z,39.67
2022-07-26T11:56:32.359Z,38.64
2022-07-26T11:59:36.358Z,36.71
2022-07-26T12:02:37.983Z,36.60
2022-07-26T12:05:41.905Z,37.49
2022-07-26T12:08:56.334Z,36.46
2022-07-26T12:11:58.097Z,36.85
2022-07-26T12:15:01.971Z,36.74
2022-07-26T12:18:03.445Z,36.22
2022-07-26T12:21:09.303Z,35.66
2022-07-26T12:24:13.487Z,35.73
2022-07-26T12:27:19.561Z,35.97
2022-07-26T12:30:21.111Z,35.29
2022-07-26T12:33:22.631Z,35.48
2022-07-26T12:36:27.713Z,35.68
2022-07-26T12:39:30.080Z,34.96
2022-07-26T12:42:36.749Z,35.52
2022-07-26T12:45:38.470Z,35.87
2022-07-26T12:48:41.634Z,36.70
2022-07-26T12:51:43.158Z,36.81
2022-07-26T12:54:46.755Z,36.58
2022-07-26T12:57:49.443Z,36.72
2022-07-26T13:00:57.241Z,36.71
2022-07-26T13:04:00.763Z,36.78
2022-07-26T13:07:02.933Z,36.22
2022-07-26T13:10:31.721Z,34.32
2022-07-26T13:13:30.892Z,34.53
2022-07-26T13:16:32.340Z,35.15
2022-07-26T13:19:35.205Z,35.20
2022-07-26T13:22:36.685Z,35.60
2022-07-26T13:25:40.389Z,36.02
2022-07-26T13:28:42.146Z,36.53
2022-07-26T13:31:43.927Z,36.48
2022-07-26T13:34:45.530Z,36.67
2022-07-26T13:37:46.929Z,36.66
2022-07-26T13:40:50.329Z,37.39
2022-07-26T13:43:54.012Z,37.76
2022-07-26T13:46:55.413Z,37.72
2022-07-26T13:49:56.817Z,38.09
2022-07-26T13:52:58.331Z,38.30
2022-07-26T13:55:59.766Z,37.94
2022-07-26T13:59:01.185Z,37.84
2022-07-26T14:02:04.570Z,37.55
2022-07-26T14:05:06.479Z,37.61
2022-07-26T14:08:07.915Z,37.91
2022-07-26T14:11:09.417Z,38.21
2022-07-26T14:14:13.174Z,38.24
2022-07-26T14:17:14.890Z,38.42
2022-07-26T14:20:17.143Z,38.72
2022-07-26T14:23:18.785Z,38.38
2022-07-26T14:26:20.231Z,38.08
2022-07-26T14:29:21.641Z,38.12
2022-07-26T14:32:23.249Z,38.09
2022-07-26T14:35:25.571Z,38.05
2022-07-26T14:38:30.116Z,37.60
2022-07-26T14:41:31.805Z,37.28
2022-07-26T14:44:34.179Z,37.54
2022-07-26T14:47:46.134Z,37.31
2022-07-26T14:51:08.752Z,37.43
2022-07-26T14:54:09.885Z,37.61
2022-07-26T14:57:11.538Z,37.26
2022-07-26T15:00:15.967Z,37.72
2022-07-26T15:03:17.499Z,37.46
2022-07-26T15:06:18.923Z,37.75
2022-07-26T15:09:20.366Z,37.82
2022-07-26T15:12:21.837Z,37.54
2022-07-26T15:15:23.621Z,38.03
2022-07-26T15:18:25.230Z,37.93
2022-07-26T15:21:26.701Z,38.23
2022-07-26T15:24:28.734Z,37.71
2022-07-26T15:27:30.321Z,38.13
2022-07-26T15:30:32.944Z,37.89
2022-07-26T15:33:35.269Z,37.48
2022-07-26T15:36:36.845Z,37.33
2022-07-26T15:39:38.309Z,37.03
2022-07-26T15:42:42.496Z,37.54
2022-07-26T15:45:45.623Z,37.31
2022-07-26T15:48:47.304Z,37.07
2022-07-26T15:51:49.828Z,37.16
2022-07-26T15:54:52.751Z,37.09
2022-07-26T15:57:54.186Z,36.90
2022-07-26T16:00:56.529Z,36.30
2022-07-26T16:03:57.962Z,36.95
2022-07-26T16:06:59.387Z,36.23
2022-07-26T16:10:01.572Z,36.24
2022-07-26T16:13:03.693Z,36.70
2022-07-26T16:16:05.741Z,36.78
2022-07-26T16:19:07.388Z,36.71
2022-07-26T16:22:08.970Z,36.35
2022-07-26T16:25:13.508Z,36.46
2022-07-26T16:28:15.011Z,36.21
2022-07-26T16:31:16.797Z,36.34
2022-07-26T16:34:18.385Z,36.60
2022-07-26T16:37:19.844Z,36.79
2022-07-26T16:40:21.503Z,36.77
2022-07-26T16:43:23.106Z,36.56
2022-07-26T16:46:24.838Z,35.86
2022-07-26T16:49:26.612Z,35.77
2022-07-26T16:52:28.263Z,36.35
2022-07-26T16:55:30.340Z,36.51
2022-07-26T16:58:32.954Z,36.61
2022-07-26T17:01:34.464Z,36.69
2022-07-26T17:04:37.297Z,36.81
2022-07-26T17:07:38.756Z,36.75
2022-07-26T17:10:40.190Z,36.82
2022-07-26T17:13:41.692Z,36.83
2022-07-26T17:16:43.871Z,37.08
2022-07-26T17:19:45.435Z,36.45
2022-07-26T17:22:46.902Z,36.44
2022-07-26T17:25:48.309Z,36.78
2022-07-26T17:28:49.813Z,36.38
2022-07-26T17:31:51.237Z,36.58
2022-07-26T17:34:52.710Z,36.50
2022-07-26T17:37:55.972Z,36.31
2022-07-26T17:40:57.901Z,36.45
2022-07-26T17:44:02.762Z,36.23
2022-07-26T17:47:05.431Z,35.94
2022-07-26T17:50:36.511Z,35.79
2022-07-26T17:53:38.693Z,35.57
2022-07-26T17:56:40.096Z,35.45
2022-07-26T17:59:41.505Z,35.80
2022-07-26T18:02:43.086Z,36.03
2022-07-26T18:05:44.666Z,36.19
2022-07-26T18:08:46.113Z,35.57
2022-07-26T18:11:47.541Z,35.91
2022-07-26T18:14:48.962Z,35.99
2022-07-26T18:17:50.370Z,36.04
2022-07-26T18:20:52.505Z,36.16
2022-07-26T18:24:15.430Z,35.59
2022-07-26T18:27:16.001Z,35.66
2022-07-26T18:30:17.496Z,35.75
2022-07-26T18:33:18.921Z,36.03
2022-07-26T18:36:20.322Z,36.08
2022-07-26T18:39:21.722Z,36.22
2022-07-26T18:42:23.173Z,36.42
2022-07-26T18:45:24.866Z,36.38
2022-07-26T18:48:26.293Z,36.58
2022-07-26T18:51:29.670Z,37.25
2022-07-26T18:54:33.188Z,37.62
2022-07-26T18:57:36.036Z,37.73
2022-07-26T19:00:37.595Z,37.85
2022-07-26T19:03:39.049Z,38.00
2022-07-26T19:06:40.516Z,38.19
2022-07-26T19:09:42.111Z,39.26
2022-07-26T19:12:46.330Z,39.56
2022-07-26T19:15:49.982Z,39.48
2022-07-26T19:18:56.880Z,39.91
2022-07-26T19:21:58.869Z,39.89
2022-07-26T19:25:00.729Z,40.13
2022-07-26T19:28:02.198Z,40.40
2022-07-26T19:31:03.905Z,41.23
2022-07-26T19:34:05.562Z,41.22
2022-07-26T19:37:07.274Z,41.90
2022-07-26T19:40:09.271Z,41.75
2022-07-26T19:43:11.003Z,42.33
2022-07-26T19:46:12.518Z,42.14
2022-07-26T19:49:16.076Z,42.46
2022-07-26T19:52:17.829Z,42.42
2022-07-26T19:55:19.390Z,42.62
2022-07-26T19:58:20.829Z,42.67
2022-07-26T20:01:29.087Z,42.41
2022-07-26T20:04:30.774Z,42.92
2022-07-26T20:07:32.322Z,43.04
2022-07-26T20:10:33.813Z,43.32
2022-07-26T20:13:35.401Z,43.36
2022-07-26T20:16:37.024Z,43.69
2022-07-26T20:19:38.661Z,43.59
2022-07-26T20:22:40.499Z,43.52
2022-07-26T20:25:42.112Z,44.24
2022-07-26T20:28:43.570Z,45.15
2022-07-26T20:31:45.061Z,45.25
2022-07-26T20:34:46.600Z,45.61
2022-07-26T20:37:48.000Z,45.56
2022-07-26T20:40:49.628Z,46.15
2022-07-26T20:43:51.281Z,46.11
2022-07-26T20:46:52.741Z,46.03
2022-07-26T20:49:55.058Z,46.72
2022-07-26T20:52:59.837Z,46.94
2022-07-26T20:56:01.443Z,47.15
2022-07-26T20:59:03.035Z,47.33
2022-07-26T21:02:04.751Z,47.78
2022-07-26T21:05:07.004Z,48.41
2022-07-26T21:08:08.466Z,47.86
2022-07-26T21:11:09.987Z,48.02
2022-07-26T21:14:11.642Z,47.62
2022-07-26T21:17:13.193Z,47.78
2022-07-26T21:20:14.716Z,47.51
2022-07-26T21:23:19.038Z,47.80
2022-07-26T21:26:21.650Z,47.73
2022-07-26T21:29:23.168Z,47.74
2022-07-26T21:32:29.613Z,48.04
2022-07-26T21:35:32.881Z,48.00
2022-07-26T21:38:34.376Z,47.91
2022-07-26T21:41:36.213Z,47.91
2022-07-26T21:44:37.678Z,48.21
2022-07-26T21:47:39.196Z,48.16
2022-07-26T21:50:40.810Z,48.49
2022-07-26T21:53:42.325Z,48.85
2022-07-26T21:56:43.797Z,49.15
2022-07-26T21:59:45.254Z,49.32
2022-07-26T22:02:46.830Z,49.15
2022-07-26T22:05:48.742Z,49.04
2022-07-26T22:08:50.319Z,49.28
2022-07-26T22:11:51.734Z,49.33
2022-07-26T22:14:53.206Z,48.99
2022-07-26T22:17:55.044Z,49.13
2022-07-26T22:20:56.726Z,49.49
2022-07-26T22:23:58.188Z,49.82
2022-07-26T22:26:59.646Z,49.70
2022-07-26T22:30:02.144Z,49.79
2022-07-26T22:33:07.832Z,49.81
2022-07-26T22:36:09.724Z,49.60
2022-07-26T22:39:11.538Z,49.79
2022-07-26T22:42:15.704Z,49.83
2022-07-26T22:45:17.729Z,50.09
2022-07-26T22:48:19.239Z,50.03
2022-07-26T22:51:20.726Z,50.41
2022-07-26T22:54:22.193Z,50.48
2022-07-26T22:57:23.610Z,51.06
2022-07-26T23:00:25.295Z,51.28
2022-07-26T23:03:26.800Z,51.65
2022-07-26T23:06:31.810Z,51.85
2022-07-26T23:09:34.032Z,52.38
2022-07-26T23:12:35.811Z,52.75
2022-07-26T23:15:37.231Z,52.88
2022-07-26T23:18:38.659Z,53.07
2022-07-26T23:21:40.208Z,53.39
2022-07-26T23:24:43.649Z,53.35
2022-07-26T23:27:45.610Z,53.70
2022-07-26T23:30:47.052Z,54.03
2022-07-26T23:33:51.301Z,54.50
2022-07-26T23:36:55.614Z,54.82
2022-07-26T23:39:57.029Z,55.02
2022-07-26T23:42:58.574Z,54.98
2022-07-26T23:46:00.136Z,54.89
2022-07-26T23:49:03.399Z,54.84
2022-07-26T23:52:05.176Z,54.90
2022-07-26T23:55:07.233Z,55.09
2022-07-26T23:58:12.046Z,55.54
